sensor_id;sensor_type;location;lat;lon;timestamp;temperature;humidity
35746;DHT22;21870;42.812;74.628;2022-10-17T00:02:19;15.30;78.90
35746;DHT22;21870;42.812;74.628;2022-10-17T00:04:45;15.30;79.40
35746;DHT22;21870;42.812;74.628;2022-10-17T00:07:11;15.30;78.00
35746;DHT22;21870;42.812;74.628;2022-10-17T00:09:37;15.30;77.30
35746;DHT22;21870;42.812;74.628;2022-10-17T00:12:03;15.30;77.00
35746;DHT22;21870;42.812;74.628;2022-10-17T00:14:29;15.30;77.00
35746;DHT22;21870;42.812;74.628;2022-10-17T00:16:55;15.20;76.90
35746;DHT22;21870;42.812;74.628;2022-10-17T00:19:21;15.20;76.90
35746;DHT22;21870;42.812;74.628;2022-10-17T00:21:48;15.20;76.90
35746;DHT22;21870;42.812;74.628;2022-10-17T00:24:21;15.20;77.10
35746;DHT22;21870;42.812;74.628;2022-10-17T00:26:47;15.10;77.10
35746;DHT22;21870;42.812;74.628;2022-10-17T00:29:13;15.10;77.10
35746;DHT22;21870;42.812;74.628;2022-10-17T00:31:39;15.00;77.50
35746;DHT22;21870;42.812;74.628;2022-10-17T00:34:05;14.90;77.80
35746;DHT22;21870;42.812;74.628;2022-10-17T00:36:31;14.90;78.10
35746;DHT22;21870;42.812;74.628;2022-10-17T00:38:59;14.90;77.90
35746;DHT22;21870;42.812;74.628;2022-10-17T00:41:28;14.90;77.90
35746;DHT22;21870;42.812;74.628;2022-10-17T00:43:58;14.90;78.00
35746;DHT22;21870;42.812;74.628;2022-10-17T00:46:27;14.80;78.20
35746;DHT22;21870;42.812;74.628;2022-10-17T00:48:55;14.70;78.40
35746;DHT22;21870;42.812;74.628;2022-10-17T00:51:36;14.70;78.70
35746;DHT22;21870;42.812;74.628;2022-10-17T00:54:04;14.70;79.50
35746;DHT22;21870;42.812;74.628;2022-10-17T00:56:31;14.60;78.70
35746;DHT22;21870;42.812;74.628;2022-10-17T00:58:57;14.60;78.50
35746;DHT22;21870;42.812;74.628;2022-10-17T01:01:24;14.60;78.50
35746;DHT22;21870;42.812;74.628;2022-10-17T01:03:50;14.70;78.40
35746;DHT22;21870;42.812;74.628;2022-10-17T01:06:16;14.70;78.30
35746;DHT22;21870;42.812;74.628;2022-10-17T01:08:42;14.70;78.50
35746;DHT22;21870;42.812;74.628;2022-10-17T01:11:20;14.70;78.30
35746;DHT22;21870;42.812;74.628;2022-10-17T01:13:51;14.80;78.20
35746;DHT22;21870;42.812;74.628;2022-10-17T01:16:30;14.80;78.80
35746;DHT22;21870;42.812;74.628;2022-10-17T01:19:27;14.90;79.10
35746;DHT22;21870;42.812;74.628;2022-10-17T01:33:13;14.20;83.90
35746;DHT22;21870;42.812;74.628;2022-10-17T01:38:43;14.10;84.20
35746;DHT22;21870;42.812;74.628;2022-10-17T01:41:44;14.00;84.90
35746;DHT22;21870;42.812;74.628;2022-10-17T01:47:19;13.90;86.90
35746;DHT22;21870;42.812;74.628;2022-10-17T01:49:48;13.80;85.80
35746;DHT22;21870;42.812;74.628;2022-10-17T01:52:22;13.90;83.70
35746;DHT22;21870;42.812;74.628;2022-10-17T01:54:55;14.00;83.80
35746;DHT22;21870;42.812;74.628;2022-10-17T01:57:39;14.00;85.00
35746;DHT22;21870;42.812;74.628;2022-10-17T02:00:10;14.00;84.80
35746;DHT22;21870;42.812;74.628;2022-10-17T02:02:38;14.00;84.80
35746;DHT22;21870;42.812;74.628;2022-10-17T02:05:06;13.90;83.50
35746;DHT22;21870;42.812;74.628;2022-10-17T02:07:33;13.90;83.20
35746;DHT22;21870;42.812;74.628;2022-10-17T02:09:59;13.90;83.50
35746;DHT22;21870;42.812;74.628;2022-10-17T02:12:53;13.90;83.90
35746;DHT22;21870;42.812;74.628;2022-10-17T02:15:51;13.90;83.60
35746;DHT22;21870;42.812;74.628;2022-10-17T02:21:48;14.10;84.10
35746;DHT22;21870;42.812;74.628;2022-10-17T02:24:41;14.10;83.70
35746;DHT22;21870;42.812;74.628;2022-10-17T02:27:33;14.30;83.10
35746;DHT22;21870;42.812;74.628;2022-10-17T02:30:13;14.50;82.80
35746;DHT22;21870;42.812;74.628;2022-10-17T02:35:25;14.80;86.50
35746;DHT22;21870;42.812;74.628;2022-10-17T02:37:53;15.00;88.00
35746;DHT22;21870;42.812;74.628;2022-10-17T02:40:21;15.20;87.20
35746;DHT22;21870;42.812;74.628;2022-10-17T02:42:49;15.40;83.30
35746;DHT22;21870;42.812;74.628;2022-10-17T02:45:16;15.50;81.90
35746;DHT22;21870;42.812;74.628;2022-10-17T02:48:22;15.70;82.40
35746;DHT22;21870;42.812;74.628;2022-10-17T02:53:32;16.10;81.60
35746;DHT22;21870;42.812;74.628;2022-10-17T02:56:03;16.20;81.20
35746;DHT22;21870;42.812;74.628;2022-10-17T02:58:32;16.20;80.70
35746;DHT22;21870;42.812;74.628;2022-10-17T03:00:59;16.30;82.60
35746;DHT22;21870;42.812;74.628;2022-10-17T03:03:30;16.50;79.10
35746;DHT22;21870;42.812;74.628;2022-10-17T03:05:56;16.60;78.40
35746;DHT22;21870;42.812;74.628;2022-10-17T03:08:23;16.80;78.70
35746;DHT22;21870;42.812;74.628;2022-10-17T03:10:49;16.80;80.00
35746;DHT22;21870;42.812;74.628;2022-10-17T03:13:16;16.90;79.00
35746;DHT22;21870;42.812;74.628;2022-10-17T03:15:42;17.10;77.90
35746;DHT22;21870;42.812;74.628;2022-10-17T03:18:08;17.30;77.30
35746;DHT22;21870;42.812;74.628;2022-10-17T03:20:35;17.40;77.50
35746;DHT22;21870;42.812;74.628;2022-10-17T03:23:01;17.50;77.70
35746;DHT22;21870;42.812;74.628;2022-10-17T03:25:27;17.70;76.30
35746;DHT22;21870;42.812;74.628;2022-10-17T03:27:59;17.90;77.10
35746;DHT22;21870;42.812;74.628;2022-10-17T03:30:26;18.00;77.40
35746;DHT22;21870;42.812;74.628;2022-10-17T03:32:52;18.10;77.00
35746;DHT22;21870;42.812;74.628;2022-10-17T03:35:19;18.20;76.80
35746;DHT22;21870;42.812;74.628;2022-10-17T03:37:45;18.40;76.70
35746;DHT22;21870;42.812;74.628;2022-10-17T03:40:11;18.50;76.50
35746;DHT22;21870;42.812;74.628;2022-10-17T03:42:37;18.60;76.50
35746;DHT22;21870;42.812;74.628;2022-10-17T03:45:03;18.80;76.30
35746;DHT22;21870;42.812;74.628;2022-10-17T03:47:29;18.90;76.30
35746;DHT22;21870;42.812;74.628;2022-10-17T03:49:55;19.30;74.60
35746;DHT22;21870;42.812;74.628;2022-10-17T03:52:21;19.30;74.40
35746;DHT22;21870;42.812;74.628;2022-10-17T03:54:49;19.50;73.60
35746;DHT22;21870;42.812;74.628;2022-10-17T03:57:16;19.60;73.80
35746;DHT22;21870;42.812;74.628;2022-10-17T03:59:42;19.80;73.20
35746;DHT22;21870;42.812;74.628;2022-10-17T04:02:09;20.00;72.40
35746;DHT22;21870;42.812;74.628;2022-10-17T04:04:35;20.10;72.50
35746;DHT22;21870;42.812;74.628;2022-10-17T04:07:01;20.20;72.70
35746;DHT22;21870;42.812;74.628;2022-10-17T04:09:27;20.20;72.00
35746;DHT22;21870;42.812;74.628;2022-10-17T04:11:53;20.50;73.90
35746;DHT22;21870;42.812;74.628;2022-10-17T04:14:19;20.60;75.10
35746;DHT22;21870;42.812;74.628;2022-10-17T04:16:45;20.70;75.20
35746;DHT22;21870;42.812;74.628;2022-10-17T04:19:12;20.80;75.90
35746;DHT22;21870;42.812;74.628;2022-10-17T04:21:42;20.80;76.90
35746;DHT22;21870;42.812;74.628;2022-10-17T04:24:10;21.00;76.30
35746;DHT22;21870;42.812;74.628;2022-10-17T04:26:36;21.20;74.90
35746;DHT22;21870;42.812;74.628;2022-10-17T04:29:03;21.30;73.90
35746;DHT22;21870;42.812;74.628;2022-10-17T04:31:29;21.40;75.60
35746;DHT22;21870;42.812;74.628;2022-10-17T04:33:55;21.50;74.70
35746;DHT22;21870;42.812;74.628;2022-10-17T04:36:21;21.70;74.00
35746;DHT22;21870;42.812;74.628;2022-10-17T04:38:48;21.80;74.30
35746;DHT22;21870;42.812;74.628;2022-10-17T04:41:15;21.90;72.80
35746;DHT22;21870;42.812;74.628;2022-10-17T04:43:42;22.10;73.30
35746;DHT22;21870;42.812;74.628;2022-10-17T04:46:12;22.00;75.10
35746;DHT22;21870;42.812;74.628;2022-10-17T04:48:39;21.90;73.70
35746;DHT22;21870;42.812;74.628;2022-10-17T04:51:09;22.00;73.20
35746;DHT22;21870;42.812;74.628;2022-10-17T04:53:37;22.00;72.30
35746;DHT22;21870;42.812;74.628;2022-10-17T04:56:13;21.90;72.90
35746;DHT22;21870;42.812;74.628;2022-10-17T04:58:41;22.00;71.40
35746;DHT22;21870;42.812;74.628;2022-10-17T05:01:10;22.10;73.20
35746;DHT22;21870;42.812;74.628;2022-10-17T05:03:37;22.10;71.90
35746;DHT22;21870;42.812;74.628;2022-10-17T05:06:08;22.20;72.10
35746;DHT22;21870;42.812;74.628;2022-10-17T05:08:35;22.30;71.90
35746;DHT22;21870;42.812;74.628;2022-10-17T05:11:02;22.30;72.80
35746;DHT22;21870;42.812;74.628;2022-10-17T05:13:28;22.40;73.10
35746;DHT22;21870;42.812;74.628;2022-10-17T05:16:01;22.50;72.40
35746;DHT22;21870;42.812;74.628;2022-10-17T05:18:27;22.60;72.30
35746;DHT22;21870;42.812;74.628;2022-10-17T05:20:54;22.70;71.90
35746;DHT22;21870;42.812;74.628;2022-10-17T05:23:20;22.70;71.10
35746;DHT22;21870;42.812;74.628;2022-10-17T05:25:46;22.70;71.50
35746;DHT22;21870;42.812;74.628;2022-10-17T05:28:12;22.90;70.00
35746;DHT22;21870;42.812;74.628;2022-10-17T05:30:38;23.00;70.30
35746;DHT22;21870;42.812;74.628;2022-10-17T05:33:04;23.20;70.60
35746;DHT22;21870;42.812;74.628;2022-10-17T05:35:30;23.30;68.20
35746;DHT22;21870;42.812;74.628;2022-10-17T05:37:57;23.30;71.50
35746;DHT22;21870;42.812;74.628;2022-10-17T05:40:24;23.40;69.60
35746;DHT22;21870;42.812;74.628;2022-10-17T05:42:50;23.60;70.60
35746;DHT22;21870;42.812;74.628;2022-10-17T05:45:17;23.70;70.20
35746;DHT22;21870;42.812;74.628;2022-10-17T05:47:43;23.90;68.80
35746;DHT22;21870;42.812;74.628;2022-10-17T05:50:09;23.70;68.80
35746;DHT22;21870;42.812;74.628;2022-10-17T05:52:36;23.80;68.40
35746;DHT22;21870;42.812;74.628;2022-10-17T05:55:03;23.80;67.90
35746;DHT22;21870;42.812;74.628;2022-10-17T05:57:29;23.90;68.20
35746;DHT22;21870;42.812;74.628;2022-10-17T05:59:55;24.20;68.40
35746;DHT22;21870;42.812;74.628;2022-10-17T06:02:21;24.40;66.20
35746;DHT22;21870;42.812;74.628;2022-10-17T06:04:48;24.40;68.70
35746;DHT22;21870;42.812;74.628;2022-10-17T06:07:15;24.30;68.60
35746;DHT22;21870;42.812;74.628;2022-10-17T06:09:42;24.50;69.50
35746;DHT22;21870;42.812;74.628;2022-10-17T06:12:08;24.50;68.00
35746;DHT22;21870;42.812;74.628;2022-10-17T06:14:36;24.60;67.00
35746;DHT22;21870;42.812;74.628;2022-10-17T06:17:02;24.70;66.50
35746;DHT22;21870;42.812;74.628;2022-10-17T06:19:28;24.60;68.50
35746;DHT22;21870;42.812;74.628;2022-10-17T06:21:55;24.60;68.10
35746;DHT22;21870;42.812;74.628;2022-10-17T06:24:21;24.80;67.90
35746;DHT22;21870;42.812;74.628;2022-10-17T06:26:47;24.60;68.80
35746;DHT22;21870;42.812;74.628;2022-10-17T06:29:14;24.60;68.10
35746;DHT22;21870;42.812;74.628;2022-10-17T06:31:40;24.40;68.50
35746;DHT22;21870;42.812;74.628;2022-10-17T06:34:06;24.40;66.70
35746;DHT22;21870;42.812;74.628;2022-10-17T06:36:32;24.40;67.30
35746;DHT22;21870;42.812;74.628;2022-10-17T06:38:59;24.10;68.60
35746;DHT22;21870;42.812;74.628;2022-10-17T06:41:25;24.00;70.10
35746;DHT22;21870;42.812;74.628;2022-10-17T06:43:51;24.00;69.50
35746;DHT22;21870;42.812;74.628;2022-10-17T06:46:18;24.20;69.80
35746;DHT22;21870;42.812;74.628;2022-10-17T06:48:44;24.40;70.50
35746;DHT22;21870;42.812;74.628;2022-10-17T06:51:10;24.20;69.30
35746;DHT22;21870;42.812;74.628;2022-10-17T06:53:38;24.20;69.00
35746;DHT22;21870;42.812;74.628;2022-10-17T06:56:06;24.10;69.50
35746;DHT22;21870;42.812;74.628;2022-10-17T06:58:35;24.30;70.20
35746;DHT22;21870;42.812;74.628;2022-10-17T07:01:05;24.20;70.00
35746;DHT22;21870;42.812;74.628;2022-10-17T07:03:31;24.10;67.80
35746;DHT22;21870;42.812;74.628;2022-10-17T07:05:58;24.10;67.80
35746;DHT22;21870;42.812;74.628;2022-10-17T07:08:24;24.20;67.40
35746;DHT22;21870;42.812;74.628;2022-10-17T07:10:51;24.00;68.10
35746;DHT22;21870;42.812;74.628;2022-10-17T07:13:18;24.10;68.70
35746;DHT22;21870;42.812;74.628;2022-10-17T07:15:44;24.10;66.60
35746;DHT22;21870;42.812;74.628;2022-10-17T07:18:11;24.50;66.70
35746;DHT22;21870;42.812;74.628;2022-10-17T07:20:37;24.60;67.30
35746;DHT22;21870;42.812;74.628;2022-10-17T07:23:03;24.60;66.90
35746;DHT22;21870;42.812;74.628;2022-10-17T07:25:29;24.60;67.10
35746;DHT22;21870;42.812;74.628;2022-10-17T07:27:55;24.50;66.90
35746;DHT22;21870;42.812;74.628;2022-10-17T07:30:22;24.20;67.20
35746;DHT22;21870;42.812;74.628;2022-10-17T07:32:48;24.40;67.00
35746;DHT22;21870;42.812;74.628;2022-10-17T07:35:14;24.40;67.10
35746;DHT22;21870;42.812;74.628;2022-10-17T07:37:40;24.30;66.80
35746;DHT22;21870;42.812;74.628;2022-10-17T07:40:07;24.40;67.50
35746;DHT22;21870;42.812;74.628;2022-10-17T07:42:35;24.50;65.90
35746;DHT22;21870;42.812;74.628;2022-10-17T07:45:02;24.60;67.10
35746;DHT22;21870;42.812;74.628;2022-10-17T07:47:28;24.60;66.30
35746;DHT22;21870;42.812;74.628;2022-10-17T07:49:56;24.80;66.60
35746;DHT22;21870;42.812;74.628;2022-10-17T07:52:22;25.00;65.20
35746;DHT22;21870;42.812;74.628;2022-10-17T07:54:48;25.00;65.70
35746;DHT22;21870;42.812;74.628;2022-10-17T07:57:15;24.90;65.30
35746;DHT22;21870;42.812;74.628;2022-10-17T07:59:41;24.70;66.20
35746;DHT22;21870;42.812;74.628;2022-10-17T08:02:17;24.90;64.60
35746;DHT22;21870;42.812;74.628;2022-10-17T08:04:45;24.80;64.90
35746;DHT22;21870;42.812;74.628;2022-10-17T08:07:11;24.80;66.90
35746;DHT22;21870;42.812;74.628;2022-10-17T08:09:37;25.10;65.00
35746;DHT22;21870;42.812;74.628;2022-10-17T08:12:04;24.90;64.10
35746;DHT22;21870;42.812;74.628;2022-10-17T08:14:30;24.90;64.70
35746;DHT22;21870;42.812;74.628;2022-10-17T08:16:56;24.90;64.50
35746;DHT22;21870;42.812;74.628;2022-10-17T08:19:22;25.00;65.80
35746;DHT22;21870;42.812;74.628;2022-10-17T08:21:49;25.10;66.10
35746;DHT22;21870;42.812;74.628;2022-10-17T08:24:16;25.10;66.70
35746;DHT22;21870;42.812;74.628;2022-10-17T08:26:42;25.20;65.90
35746;DHT22;21870;42.812;74.628;2022-10-17T08:29:15;25.10;63.60
35746;DHT22;21870;42.812;74.628;2022-10-17T08:31:42;25.10;64.00
35746;DHT22;21870;42.812;74.628;2022-10-17T08:34:08;25.00;64.20
35746;DHT22;21870;42.812;74.628;2022-10-17T08:36:34;24.80;65.40
35746;DHT22;21870;42.812;74.628;2022-10-17T08:39:00;25.00;65.30
35746;DHT22;21870;42.812;74.628;2022-10-17T08:47:06;25.00;65.00
35746;DHT22;21870;42.812;74.628;2022-10-17T08:49:51;25.00;65.40
35746;DHT22;21870;42.812;74.628;2022-10-17T08:52:31;24.90;63.40
35746;DHT22;21870;42.812;74.628;2022-10-17T08:54:58;24.90;64.40
35746;DHT22;21870;42.812;74.628;2022-10-17T08:57:24;24.90;64.90
35746;DHT22;21870;42.812;74.628;2022-10-17T08:59:52;24.80;67.00
35746;DHT22;21870;42.812;74.628;2022-10-17T09:05:40;25.00;64.20
35746;DHT22;21870;42.812;74.628;2022-10-17T09:08:36;25.00;64.70
35746;DHT22;21870;42.812;74.628;2022-10-17T09:19:39;24.80;63.70
35746;DHT22;21870;42.812;74.628;2022-10-17T09:22:19;24.60;63.70
35746;DHT22;21870;42.812;74.628;2022-10-17T09:24:59;24.40;64.50
35746;DHT22;21870;42.812;74.628;2022-10-17T09:27:46;24.20;64.40
35746;DHT22;21870;42.812;74.628;2022-10-17T09:32:58;24.00;67.30
35746;DHT22;21870;42.812;74.628;2022-10-17T09:35:25;23.90;66.60
35746;DHT22;21870;42.812;74.628;2022-10-17T09:37:52;23.90;65.40
35746;DHT22;21870;42.812;74.628;2022-10-17T09:40:24;23.70;67.50
35746;DHT22;21870;42.812;74.628;2022-10-17T09:42:51;23.70;68.30
35746;DHT22;21870;42.812;74.628;2022-10-17T09:45:20;23.60;67.80
35746;DHT22;21870;42.812;74.628;2022-10-17T09:50:28;24.00;67.10
35746;DHT22;21870;42.812;74.628;2022-10-17T09:52:56;24.00;67.00
35746;DHT22;21870;42.812;74.628;2022-10-17T09:55:46;24.00;66.80
35746;DHT22;21870;42.812;74.628;2022-10-17T09:58:13;23.90;67.90
35746;DHT22;21870;42.812;74.628;2022-10-17T10:00:43;23.60;67.90
35746;DHT22;21870;42.812;74.628;2022-10-17T10:03:17;23.50;67.20
35746;DHT22;21870;42.812;74.628;2022-10-17T10:05:59;23.50;67.40
35746;DHT22;21870;42.812;74.628;2022-10-17T10:08:34;23.20;67.80
35746;DHT22;21870;42.812;74.628;2022-10-17T10:11:04;23.00;68.00
35746;DHT22;21870;42.812;74.628;2022-10-17T10:13:32;22.80;68.20
35746;DHT22;21870;42.812;74.628;2022-10-17T10:16:22;22.70;69.10
35746;DHT22;21870;42.812;74.628;2022-10-17T10:18:54;22.60;67.80
35746;DHT22;21870;42.812;74.628;2022-10-17T10:21:22;22.50;68.20
35746;DHT22;21870;42.812;74.628;2022-10-17T10:26:34;22.20;69.70
35746;DHT22;21870;42.812;74.628;2022-10-17T10:32:35;22.00;69.20
35746;DHT22;21870;42.812;74.628;2022-10-17T10:35:15;21.90;70.10
35746;DHT22;21870;42.812;74.628;2022-10-17T10:37:43;21.40;70.20
35746;DHT22;21870;42.812;74.628;2022-10-17T10:40:18;21.20;71.10
35746;DHT22;21870;42.812;74.628;2022-10-17T10:42:53;21.10;71.60
35746;DHT22;21870;42.812;74.628;2022-10-17T10:45:25;20.80;72.10
35746;DHT22;21870;42.812;74.628;2022-10-17T10:53:28;20.50;72.50
35746;DHT22;21870;42.812;74.628;2022-10-17T10:56:00;20.40;72.80
35746;DHT22;21870;42.812;74.628;2022-10-17T10:59:02;20.20;72.60
35746;DHT22;21870;42.812;74.628;2022-10-17T11:04:07;19.90;73.10
35746;DHT22;21870;42.812;74.628;2022-10-17T11:06:41;19.80;73.70
35746;DHT22;21870;42.812;74.628;2022-10-17T11:12:10;19.50;74.00
35746;DHT22;21870;42.812;74.628;2022-10-17T11:15:19;19.40;75.10
35746;DHT22;21870;42.812;74.628;2022-10-17T11:26:00;19.30;74.30
35746;DHT22;21870;42.812;74.628;2022-10-17T11:28:28;19.30;73.60
35746;DHT22;21870;42.812;74.628;2022-10-17T11:31:03;19.30;74.80
35746;DHT22;21870;42.812;74.628;2022-10-17T11:36:04;19.30;74.30
35746;DHT22;21870;42.812;74.628;2022-10-17T11:41:08;19.40;73.80
35746;DHT22;21870;42.812;74.628;2022-10-17T11:44:07;19.40;73.40
35746;DHT22;21870;42.812;74.628;2022-10-17T11:46:35;19.30;74.10
35746;DHT22;21870;42.812;74.628;2022-10-17T11:49:15;19.30;74.00
35746;DHT22;21870;42.812;74.628;2022-10-17T11:51:56;19.30;74.00
35746;DHT22;21870;42.812;74.628;2022-10-17T11:54:48;19.30;73.80
35746;DHT22;21870;42.812;74.628;2022-10-17T11:58:09;19.30;73.50
35746;DHT22;21870;42.812;74.628;2022-10-17T12:09:05;19.30;73.70
35746;DHT22;21870;42.812;74.628;2022-10-17T12:13:59;19.10;74.00
35746;DHT22;21870;42.812;74.628;2022-10-17T12:21:28;19.00;76.90
35746;DHT22;21870;42.812;74.628;2022-10-17T12:24:43;19.00;77.50
35746;DHT22;21870;42.812;74.628;2022-10-17T12:30:44;18.90;74.20
35746;DHT22;21870;42.812;74.628;2022-10-17T12:33:05;18.90;74.50
35746;DHT22;21870;42.812;74.628;2022-10-17T12:35:39;18.80;74.50
35746;DHT22;21870;42.812;74.628;2022-10-17T12:38:22;18.80;74.50
35746;DHT22;21870;42.812;74.628;2022-10-17T12:40:51;18.70;75.10
35746;DHT22;21870;42.812;74.628;2022-10-17T12:48:11;18.60;75.80
35746;DHT22;21870;42.812;74.628;2022-10-17T12:51:00;18.50;75.60
35746;DHT22;21870;42.812;74.628;2022-10-17T12:56:41;18.40;77.40
35746;DHT22;21870;42.812;74.628;2022-10-17T12:59:23;18.40;77.10
35746;DHT22;21870;42.812;74.628;2022-10-17T13:01:52;18.30;78.30
35746;DHT22;21870;42.812;74.628;2022-10-17T13:04:20;18.30;78.10
35746;DHT22;21870;42.812;74.628;2022-10-17T13:06:49;18.10;79.10
35746;DHT22;21870;42.812;74.628;2022-10-17T13:11:48;18.00;80.70
35746;DHT22;21870;42.812;74.628;2022-10-17T13:14:17;18.00;79.20
35746;DHT22;21870;42.812;74.628;2022-10-17T13:17:02;18.00;79.70
35746;DHT22;21870;42.812;74.628;2022-10-17T13:19:50;18.00;77.80
35746;DHT22;21870;42.812;74.628;2022-10-17T13:22:22;18.00;79.80
35746;DHT22;21870;42.812;74.628;2022-10-17T13:24:50;17.90;79.60
35746;DHT22;21870;42.812;74.628;2022-10-17T13:27:27;17.90;79.50
35746;DHT22;21870;42.812;74.628;2022-10-17T13:29:54;17.80;79.60
35746;DHT22;21870;42.812;74.628;2022-10-17T13:32:22;17.80;79.60
35746;DHT22;21870;42.812;74.628;2022-10-17T13:35:08;17.70;80.00
35746;DHT22;21870;42.812;74.628;2022-10-17T13:37:36;17.70;81.10
35746;DHT22;21870;42.812;74.628;2022-10-17T13:40:04;17.70;79.80
35746;DHT22;21870;42.812;74.628;2022-10-17T13:42:38;17.60;79.60
35746;DHT22;21870;42.812;74.628;2022-10-17T13:45:18;17.60;80.20
35746;DHT22;21870;42.812;74.628;2022-10-17T13:47:45;17.60;80.40
35746;DHT22;21870;42.812;74.628;2022-10-17T13:50:45;17.50;78.70
35746;DHT22;21870;42.812;74.628;2022-10-17T13:56:01;17.50;78.20
35746;DHT22;21870;42.812;74.628;2022-10-17T13:59:07;17.40;78.20
35746;DHT22;21870;42.812;74.628;2022-10-17T14:01:42;17.30;78.30
35746;DHT22;21870;42.812;74.628;2022-10-17T14:04:08;17.20;78.40
35746;DHT22;21870;42.812;74.628;2022-10-17T14:06:41;17.10;78.60
35746;DHT22;21870;42.812;74.628;2022-10-17T14:09:22;17.00;79.00
35746;DHT22;21870;42.812;74.628;2022-10-17T14:12:15;17.10;79.40
35746;DHT22;21870;42.812;74.628;2022-10-17T14:14:48;17.10;79.10
35746;DHT22;21870;42.812;74.628;2022-10-17T14:17:25;17.10;79.30
35746;DHT22;21870;42.812;74.628;2022-10-17T14:19:57;17.00;78.60
35746;DHT22;21870;42.812;74.628;2022-10-17T14:22:32;17.00;78.30
35746;DHT22;21870;42.812;74.628;2022-10-17T14:24:58;17.00;78.10
35746;DHT22;21870;42.812;74.628;2022-10-17T14:27:37;17.00;77.90
35746;DHT22;21870;42.812;74.628;2022-10-17T14:33:01;17.00;78.10
35746;DHT22;21870;42.812;74.628;2022-10-17T14:35:28;17.00;78.20
35746;DHT22;21870;42.812;74.628;2022-10-17T14:38:11;17.10;78.30
35746;DHT22;21870;42.812;74.628;2022-10-17T14:40:52;17.10;78.00
35746;DHT22;21870;42.812;74.628;2022-10-17T14:43:24;17.10;79.50
35746;DHT22;21870;42.812;74.628;2022-10-17T14:45:51;17.10;78.90
35746;DHT22;21870;42.812;74.628;2022-10-17T14:48:21;17.10;78.50
35746;DHT22;21870;42.812;74.628;2022-10-17T14:53:36;17.10;78.60
35746;DHT22;21870;42.812;74.628;2022-10-17T14:56:19;17.10;78.50
35746;DHT22;21870;42.812;74.628;2022-10-17T14:58:45;17.10;80.10
35746;DHT22;21870;42.812;74.628;2022-10-17T15:01:11;17.00;79.70
35746;DHT22;21870;42.812;74.628;2022-10-17T15:03:39;17.10;79.80
35746;DHT22;21870;42.812;74.628;2022-10-17T15:06:20;17.10;79.40
35746;DHT22;21870;42.812;74.628;2022-10-17T15:08:46;17.20;78.70
35746;DHT22;21870;42.812;74.628;2022-10-17T15:11:12;17.10;82.70
35746;DHT22;21870;42.812;74.628;2022-10-17T15:13:38;17.00;80.30
35746;DHT22;21870;42.812;74.628;2022-10-17T15:16:26;16.80;82.80
35746;DHT22;21870;42.812;74.628;2022-10-17T15:18:53;16.80;82.30
35746;DHT22;21870;42.812;74.628;2022-10-17T15:21:22;16.90;84.00
35746;DHT22;21870;42.812;74.628;2022-10-17T15:23:48;16.70;85.10
35746;DHT22;21870;42.812;74.628;2022-10-17T15:26:21;16.60;85.30
35746;DHT22;21870;42.812;74.628;2022-10-17T15:28:48;16.70;85.70
35746;DHT22;21870;42.812;74.628;2022-10-17T15:31:17;16.60;85.60
35746;DHT22;21870;42.812;74.628;2022-10-17T15:33:44;16.60;82.40
35746;DHT22;21870;42.812;74.628;2022-10-17T15:38:52;16.50;80.30
35746;DHT22;21870;42.812;74.628;2022-10-17T15:41:21;16.40;79.90
35746;DHT22;21870;42.812;74.628;2022-10-17T15:43:48;16.40;80.10
35746;DHT22;21870;42.812;74.628;2022-10-17T15:46:17;16.50;79.70
35746;DHT22;21870;42.812;74.628;2022-10-17T15:48:46;16.60;80.20
35746;DHT22;21870;42.812;74.628;2022-10-17T15:51:13;16.50;80.30
35746;DHT22;21870;42.812;74.628;2022-10-17T15:53:42;16.60;80.30
35746;DHT22;21870;42.812;74.628;2022-10-17T15:56:25;16.40;80.50
35746;DHT22;21870;42.812;74.628;2022-10-17T15:58:53;16.40;81.90
35746;DHT22;21870;42.812;74.628;2022-10-17T16:01:29;16.40;82.30
35746;DHT22;21870;42.812;74.628;2022-10-17T16:03:56;16.40;82.60
35746;DHT22;21870;42.812;74.628;2022-10-17T16:06:23;16.40;83.40
35746;DHT22;21870;42.812;74.628;2022-10-17T16:08:49;16.30;83.80
35746;DHT22;21870;42.812;74.628;2022-10-17T16:11:37;16.20;84.20
35746;DHT22;21870;42.812;74.628;2022-10-17T16:14:06;16.20;84.20
35746;DHT22;21870;42.812;74.628;2022-10-17T16:16:33;16.30;84.00
35746;DHT22;21870;42.812;74.628;2022-10-17T16:18:59;16.20;83.70
35746;DHT22;21870;42.812;74.628;2022-10-17T16:21:28;16.10;83.50
35746;DHT22;21870;42.812;74.628;2022-10-17T16:23:56;16.10;84.30
35746;DHT22;21870;42.812;74.628;2022-10-17T16:26:22;16.00;84.60
35746;DHT22;21870;42.812;74.628;2022-10-17T16:28:48;16.10;84.10
35746;DHT22;21870;42.812;74.628;2022-10-17T16:31:25;16.00;83.50
35746;DHT22;21870;42.812;74.628;2022-10-17T16:33:55;16.20;83.50
35746;DHT22;21870;42.812;74.628;2022-10-17T16:36:22;16.20;83.50
35746;DHT22;21870;42.812;74.628;2022-10-17T16:38:51;16.30;83.30
35746;DHT22;21870;42.812;74.628;2022-10-17T16:41:20;16.30;83.70
35746;DHT22;21870;42.812;74.628;2022-10-17T16:43:48;16.30;84.80
35746;DHT22;21870;42.812;74.628;2022-10-17T16:46:16;16.40;85.10
35746;DHT22;21870;42.812;74.628;2022-10-17T16:48:43;16.40;85.90
35746;DHT22;21870;42.812;74.628;2022-10-17T16:51:10;16.30;84.90
35746;DHT22;21870;42.812;74.628;2022-10-17T16:53:37;16.20;85.40
35746;DHT22;21870;42.812;74.628;2022-10-17T16:56:14;16.20;86.70
35746;DHT22;21870;42.812;74.628;2022-10-17T16:58:41;16.20;86.90
35746;DHT22;21870;42.812;74.628;2022-10-17T17:01:10;16.10;87.30
35746;DHT22;21870;42.812;74.628;2022-10-17T17:03:39;16.00;88.30
35746;DHT22;21870;42.812;74.628;2022-10-17T17:06:07;16.10;89.40
35746;DHT22;21870;42.812;74.628;2022-10-17T17:08:34;16.00;88.10
35746;DHT22;21870;42.812;74.628;2022-10-17T17:11:10;15.90;87.50
35746;DHT22;21870;42.812;74.628;2022-10-17T17:13:37;15.80;87.40
35746;DHT22;21870;42.812;74.628;2022-10-17T17:16:09;15.80;86.50
35746;DHT22;21870;42.812;74.628;2022-10-17T17:18:36;15.70;85.80
35746;DHT22;21870;42.812;74.628;2022-10-17T17:21:04;15.80;85.90
35746;DHT22;21870;42.812;74.628;2022-10-17T17:23:33;15.70;86.50
35746;DHT22;21870;42.812;74.628;2022-10-17T17:26:04;15.70;87.10
35746;DHT22;21870;42.812;74.628;2022-10-17T17:28:31;15.60;88.10
35746;DHT22;21870;42.812;74.628;2022-10-17T17:30:58;15.60;89.20
35746;DHT22;21870;42.812;74.628;2022-10-17T17:33:25;15.60;89.60
35746;DHT22;21870;42.812;74.628;2022-10-17T17:35:55;15.60;89.50
35746;DHT22;21870;42.812;74.628;2022-10-17T17:38:21;15.50;89.60